sensor_id;sensor_type;location;lat;lon;timestamp;temperature;humidity
18575;DHT22;9417;16.484;102.872;2022-10-30T00:01:28;22.10;96.20
18575;DHT22;9417;16.484;102.872;2022-10-30T00:03:34;22.10;96.20
18575;DHT22;9417;16.484;102.872;2022-10-30T00:05:42;22.20;96.20
18575;DHT22;9417;16.484;102.872;2022-10-30T00:07:51;22.20;96.20
18575;DHT22;9417;16.484;102.872;2022-10-30T00:09:58;22.20;96.30
18575;DHT22;9417;16.484;102.872;2022-10-30T00:12:05;22.30;96.40
18575;DHT22;9417;16.484;102.872;2022-10-30T00:14:11;22.30;96.30
18575;DHT22;9417;16.484;102.872;2022-10-30T00:16:18;22.30;96.40
18575;DHT22;9417;16.484;102.872;2022-10-30T00:18:24;22.40;96.30
18575;DHT22;9417;16.484;102.872;2022-10-30T00:20:31;22.40;96.30
18575;DHT22;9417;16.484;102.872;2022-10-30T00:22:38;22.50;96.20
18575;DHT22;9417;16.484;102.872;2022-10-30T00:24:46;22.50;96.10
18575;DHT22;9417;16.484;102.872;2022-10-30T00:26:52;22.60;96.10
18575;DHT22;9417;16.484;102.872;2022-10-30T00:29:00;22.60;95.80
18575;DHT22;9417;16.484;102.872;2022-10-30T00:31:09;22.70;95.60
18575;DHT22;9417;16.484;102.872;2022-10-30T00:33:16;22.80;95.40
18575;DHT22;9417;16.484;102.872;2022-10-30T00:35:22;22.80;95.10
18575;DHT22;9417;16.484;102.872;2022-10-30T00:37:29;22.90;95.00
18575;DHT22;9417;16.484;102.872;2022-10-30T00:39:35;22.90;94.80
18575;DHT22;9417;16.484;102.872;2022-10-30T00:41:44;23.00;94.70
18575;DHT22;9417;16.484;102.872;2022-10-30T00:43:51;23.10;94.40
18575;DHT22;9417;16.484;102.872;2022-10-30T00:46:02;23.10;94.30
18575;DHT22;9417;16.484;102.872;2022-10-30T00:48:11;23.20;94.20
18575;DHT22;9417;16.484;102.872;2022-10-30T00:50:20;23.20;94.10
18575;DHT22;9417;16.484;102.872;2022-10-30T00:52:32;23.30;93.30
18575;DHT22;9417;16.484;102.872;2022-10-30T00:54:39;23.40;92.30
18575;DHT22;9417;16.484;102.872;2022-10-30T00:56:50;23.50;92.30
18575;DHT22;9417;16.484;102.872;2022-10-30T00:59:00;23.50;91.30
18575;DHT22;9417;16.484;102.872;2022-10-30T01:01:10;23.60;90.70
18575;DHT22;9417;16.484;102.872;2022-10-30T01:03:21;23.80;90.30
18575;DHT22;9417;16.484;102.872;2022-10-30T01:05:29;23.80;88.50
18575;DHT22;9417;16.484;102.872;2022-10-30T01:07:38;23.90;84.90
18575;DHT22;9417;16.484;102.872;2022-10-30T01:09:46;24.00;85.90
18575;DHT22;9417;16.484;102.872;2022-10-30T01:11:54;24.00;85.30
18575;DHT22;9417;16.484;102.872;2022-10-30T01:14:04;24.10;85.10
18575;DHT22;9417;16.484;102.872;2022-10-30T01:16:31;24.20;85.20
18575;DHT22;9417;16.484;102.872;2022-10-30T01:18:50;24.30;85.20
18575;DHT22;9417;16.484;102.872;2022-10-30T01:21:11;24.30;83.90
18575;DHT22;9417;16.484;102.872;2022-10-30T01:23:28;24.40;84.10
18575;DHT22;9417;16.484;102.872;2022-10-30T01:25:46;24.50;82.70
18575;DHT22;9417;16.484;102.872;2022-10-30T01:28:00;24.50;78.60
18575;DHT22;9417;16.484;102.872;2022-10-30T01:30:17;24.60;80.20
18575;DHT22;9417;16.484;102.872;2022-10-30T01:32:40;24.70;80.30
18575;DHT22;9417;16.484;102.872;2022-10-30T01:34:56;24.70;79.40
18575;DHT22;9417;16.484;102.872;2022-10-30T01:37:08;24.80;79.20
18575;DHT22;9417;16.484;102.872;2022-10-30T01:39:21;24.80;77.30
18575;DHT22;9417;16.484;102.872;2022-10-30T01:41:29;24.90;77.60
18575;DHT22;9417;16.484;102.872;2022-10-30T01:43:39;24.90;78.20
18575;DHT22;9417;16.484;102.872;2022-10-30T01:45:57;25.00;78.00
18575;DHT22;9417;16.484;102.872;2022-10-30T01:48:21;25.00;79.60
18575;DHT22;9417;16.484;102.872;2022-10-30T01:50:39;25.10;77.70
18575;DHT22;9417;16.484;102.872;2022-10-30T01:52:54;25.10;78.70
18575;DHT22;9417;16.484;102.872;2022-10-30T01:55:09;25.20;78.80
18575;DHT22;9417;16.484;102.872;2022-10-30T01:57:34;25.20;78.50
18575;DHT22;9417;16.484;102.872;2022-10-30T01:59:49;25.30;77.70
18575;DHT22;9417;16.484;102.872;2022-10-30T02:01:58;25.40;76.80
18575;DHT22;9417;16.484;102.872;2022-10-30T02:04:07;25.40;77.00
18575;DHT22;9417;16.484;102.872;2022-10-30T02:06:14;25.50;77.10
18575;DHT22;9417;16.484;102.872;2022-10-30T02:08:22;25.60;75.60
18575;DHT22;9417;16.484;102.872;2022-10-30T02:10:30;25.60;75.20
18575;DHT22;9417;16.484;102.872;2022-10-30T02:12:38;25.60;75.80
18575;DHT22;9417;16.484;102.872;2022-10-30T02:14:50;25.70;75.60
18575;DHT22;9417;16.484;102.872;2022-10-30T02:17:00;25.80;75.60
18575;DHT22;9417;16.484;102.872;2022-10-30T02:19:08;25.90;76.20
18575;DHT22;9417;16.484;102.872;2022-10-30T02:21:17;26.00;76.30
18575;DHT22;9417;16.484;102.872;2022-10-30T02:23:24;26.10;75.70
18575;DHT22;9417;16.484;102.872;2022-10-30T02:25:31;26.20;75.30
18575;DHT22;9417;16.484;102.872;2022-10-30T02:27:38;26.20;74.50
18575;DHT22;9417;16.484;102.872;2022-10-30T02:29:47;26.30;74.10
18575;DHT22;9417;16.484;102.872;2022-10-30T02:31:54;26.40;73.60
18575;DHT22;9417;16.484;102.872;2022-10-30T02:34:01;26.40;73.40
18575;DHT22;9417;16.484;102.872;2022-10-30T02:36:08;26.50;73.30
18575;DHT22;9417;16.484;102.872;2022-10-30T02:38:18;26.60;73.30
18575;DHT22;9417;16.484;102.872;2022-10-30T02:40:26;26.60;73.20
18575;DHT22;9417;16.484;102.872;2022-10-30T02:42:33;26.70;73.10
18575;DHT22;9417;16.484;102.872;2022-10-30T02:44:40;26.60;72.30
18575;DHT22;9417;16.484;102.872;2022-10-30T02:46:47;26.60;71.10
18575;DHT22;9417;16.484;102.872;2022-10-30T02:48:54;26.70;70.70
18575;DHT22;9417;16.484;102.872;2022-10-30T02:51:03;26.70;71.30
18575;DHT22;9417;16.484;102.872;2022-10-30T02:53:10;26.70;70.20
18575;DHT22;9417;16.484;102.872;2022-10-30T02:55:19;26.80;71.10
18575;DHT22;9417;16.484;102.872;2022-10-30T02:57:28;26.90;71.40
18575;DHT22;9417;16.484;102.872;2022-10-30T02:59:35;27.00;70.30
18575;DHT22;9417;16.484;102.872;2022-10-30T03:01:45;27.00;70.00
18575;DHT22;9417;16.484;102.872;2022-10-30T03:03:53;27.10;69.60
18575;DHT22;9417;16.484;102.872;2022-10-30T03:06:00;27.10;70.00
18575;DHT22;9417;16.484;102.872;2022-10-30T03:08:07;27.20;69.20
18575;DHT22;9417;16.484;102.872;2022-10-30T03:10:14;27.30;68.60
18575;DHT22;9417;16.484;102.872;2022-10-30T03:12:23;27.30;68.70
18575;DHT22;9417;16.484;102.872;2022-10-30T03:14:30;27.40;68.20
18575;DHT22;9417;16.484;102.872;2022-10-30T03:16:39;27.40;67.70
18575;DHT22;9417;16.484;102.872;2022-10-30T03:18:47;27.40;67.60
18575;DHT22;9417;16.484;102.872;2022-10-30T03:20:56;27.40;67.50
18575;DHT22;9417;16.484;102.872;2022-10-30T03:23:04;27.50;67.60
18575;DHT22;9417;16.484;102.872;2022-10-30T03:25:11;27.50;67.30
18575;DHT22;9417;16.484;102.872;2022-10-30T03:27:19;27.50;67.40
18575;DHT22;9417;16.484;102.872;2022-10-30T03:29:28;27.60;69.60
18575;DHT22;9417;16.484;102.872;2022-10-30T03:31:37;27.70;67.00
18575;DHT22;9417;16.484;102.872;2022-10-30T03:33:54;27.80;68.00
18575;DHT22;9417;16.484;102.872;2022-10-30T03:36:02;27.80;66.50
18575;DHT22;9417;16.484;102.872;2022-10-30T03:38:09;27.90;66.60
18575;DHT22;9417;16.484;102.872;2022-10-30T03:40:16;27.90;65.30
18575;DHT22;9417;16.484;102.872;2022-10-30T03:42:23;28.00;65.90
18575;DHT22;9417;16.484;102.872;2022-10-30T03:44:32;28.10;66.40
18575;DHT22;9417;16.484;102.872;2022-10-30T03:46:39;28.10;65.70
18575;DHT22;9417;16.484;102.872;2022-10-30T03:49:01;28.30;66.10
18575;DHT22;9417;16.484;102.872;2022-10-30T03:51:08;28.30;65.40
18575;DHT22;9417;16.484;102.872;2022-10-30T03:53:15;28.40;65.00
18575;DHT22;9417;16.484;102.872;2022-10-30T03:55:23;28.40;65.80
18575;DHT22;9417;16.484;102.872;2022-10-30T03:57:36;28.40;64.40
18575;DHT22;9417;16.484;102.872;2022-10-30T03:59:50;28.30;64.60
18575;DHT22;9417;16.484;102.872;2022-10-30T04:02:09;28.40;67.20
18575;DHT22;9417;16.484;102.872;2022-10-30T04:04:17;28.50;64.50
18575;DHT22;9417;16.484;102.872;2022-10-30T04:06:24;28.50;61.50
18575;DHT22;9417;16.484;102.872;2022-10-30T04:08:32;28.50;62.50
18575;DHT22;9417;16.484;102.872;2022-10-30T04:10:42;28.50;62.20
18575;DHT22;9417;16.484;102.872;2022-10-30T04:12:49;28.50;62.00
18575;DHT22;9417;16.484;102.872;2022-10-30T04:15:01;28.60;63.40
18575;DHT22;9417;16.484;102.872;2022-10-30T04:17:08;28.70;61.10
18575;DHT22;9417;16.484;102.872;2022-10-30T04:19:15;28.70;63.00
18575;DHT22;9417;16.484;102.872;2022-10-30T04:21:22;28.80;63.30
18575;DHT22;9417;16.484;102.872;2022-10-30T04:23:29;28.80;62.00
18575;DHT22;9417;16.484;102.872;2022-10-30T04:25:36;28.90;62.30
18575;DHT22;9417;16.484;102.872;2022-10-30T04:27:44;28.90;60.60
18575;DHT22;9417;16.484;102.872;2022-10-30T04:29:53;28.90;61.30
18575;DHT22;9417;16.484;102.872;2022-10-30T04:32:02;28.90;59.80
18575;DHT22;9417;16.484;102.872;2022-10-30T04:34:13;29.00;61.00
18575;DHT22;9417;16.484;102.872;2022-10-30T04:36:20;29.10;61.00
18575;DHT22;9417;16.484;102.872;2022-10-30T04:38:34;29.10;60.50
18575;DHT22;9417;16.484;102.872;2022-10-30T04:40:45;29.10;60.80
18575;DHT22;9417;16.484;102.872;2022-10-30T04:42:53;29.30;60.80
18575;DHT22;9417;16.484;102.872;2022-10-30T04:45:00;29.30;61.30
18575;DHT22;9417;16.484;102.872;2022-10-30T04:47:10;29.40;60.00
18575;DHT22;9417;16.484;102.872;2022-10-30T04:49:16;29.50;60.30
18575;DHT22;9417;16.484;102.872;2022-10-30T04:51:24;29.50;59.30
18575;DHT22;9417;16.484;102.872;2022-10-30T04:53:31;29.60;58.10
18575;DHT22;9417;16.484;102.872;2022-10-30T04:55:42;29.60;56.40
18575;DHT22;9417;16.484;102.872;2022-10-30T04:57:49;29.70;57.20
18575;DHT22;9417;16.484;102.872;2022-10-30T05:00:01;29.70;57.50
18575;DHT22;9417;16.484;102.872;2022-10-30T05:02:10;29.80;57.30
18575;DHT22;9417;16.484;102.872;2022-10-30T05:04:17;29.80;56.90
18575;DHT22;9417;16.484;102.872;2022-10-30T05:06:26;29.80;56.50
18575;DHT22;9417;16.484;102.872;2022-10-30T05:08:33;29.90;56.60
18575;DHT22;9417;16.484;102.872;2022-10-30T05:10:51;29.90;56.10
18575;DHT22;9417;16.484;102.872;2022-10-30T05:12:59;29.90;55.90
18575;DHT22;9417;16.484;102.872;2022-10-30T05:15:06;29.80;56.10
18575;DHT22;9417;16.484;102.872;2022-10-30T05:17:16;29.80;55.90
18575;DHT22;9417;16.484;102.872;2022-10-30T05:19:24;29.70;56.80
18575;DHT22;9417;16.484;102.872;2022-10-30T05:21:32;29.70;56.60
18575;DHT22;9417;16.484;102.872;2022-10-30T05:23:40;29.70;55.80
18575;DHT22;9417;16.484;102.872;2022-10-30T05:25:47;29.70;56.10
18575;DHT22;9417;16.484;102.872;2022-10-30T05:27:58;29.70;55.20
18575;DHT22;9417;16.484;102.872;2022-10-30T05:30:09;29.80;56.40
18575;DHT22;9417;16.484;102.872;2022-10-30T05:32:18;29.90;56.30
18575;DHT22;9417;16.484;102.872;2022-10-30T05:34:26;29.90;56.50
18575;DHT22;9417;16.484;102.872;2022-10-30T05:36:33;30.00;57.00
18575;DHT22;9417;16.484;102.872;2022-10-30T05:38:41;30.20;57.40
18575;DHT22;9417;16.484;102.872;2022-10-30T05:41:01;30.20;56.20
18575;DHT22;9417;16.484;102.872;2022-10-30T05:43:08;30.40;56.60
18575;DHT22;9417;16.484;102.872;2022-10-30T05:45:16;30.40;55.00
18575;DHT22;9417;16.484;102.872;2022-10-30T05:47:25;30.40;54.80
18575;DHT22;9417;16.484;102.872;2022-10-30T05:49:32;30.50;54.30
18575;DHT22;9417;16.484;102.872;2022-10-30T05:51:45;30.50;54.40
18575;DHT22;9417;16.484;102.872;2022-10-30T05:53:52;30.50;53.80
18575;DHT22;9417;16.484;102.872;2022-10-30T05:56:03;30.50;53.60
18575;DHT22;9417;16.484;102.872;2022-10-30T05:58:11;30.50;54.40
18575;DHT22;9417;16.484;102.872;2022-10-30T06:00:20;30.50;54.60
18575;DHT22;9417;16.484;102.872;2022-10-30T06:02:29;30.50;54.90
18575;DHT22;9417;16.484;102.872;2022-10-30T06:04:36;30.60;55.60
18575;DHT22;9417;16.484;102.872;2022-10-30T06:06:47;30.60;55.60
18575;DHT22;9417;16.484;102.872;2022-10-30T06:08:54;30.60;55.20
18575;DHT22;9417;16.484;102.872;2022-10-30T06:11:16;30.70;53.90
18575;DHT22;9417;16.484;102.872;2022-10-30T06:13:28;30.70;53.80
18575;DHT22;9417;16.484;102.872;2022-10-30T06:15:45;30.80;54.00
18575;DHT22;9417;16.484;102.872;2022-10-30T06:17:54;30.80;54.40
18575;DHT22;9417;16.484;102.872;2022-10-30T06:20:16;30.80;54.30
18575;DHT22;9417;16.484;102.872;2022-10-30T06:22:36;30.80;53.80
18575;DHT22;9417;16.484;102.872;2022-10-30T06:24:50;30.90;54.50
18575;DHT22;9417;16.484;102.872;2022-10-30T06:27:16;30.90;54.30
18575;DHT22;9417;16.484;102.872;2022-10-30T06:29:23;30.90;54.60
18575;DHT22;9417;16.484;102.872;2022-10-30T06:31:31;30.90;53.80
18575;DHT22;9417;16.484;102.872;2022-10-30T06:33:43;30.90;53.90
18575;DHT22;9417;16.484;102.872;2022-10-30T06:35:50;30.90;54.70
18575;DHT22;9417;16.484;102.872;2022-10-30T06:37:57;30.90;54.80
18575;DHT22;9417;16.484;102.872;2022-10-30T06:40:07;30.90;54.50
18575;DHT22;9417;16.484;102.872;2022-10-30T06:42:26;30.90;54.00
18575;DHT22;9417;16.484;102.872;2022-10-30T06:44:44;30.80;54.20
18575;DHT22;9417;16.484;102.872;2022-10-30T06:46:53;30.80;54.40
18575;DHT22;9417;16.484;102.872;2022-10-30T06:49:01;30.70;54.10
18575;DHT22;9417;16.484;102.872;2022-10-30T06:51:10;30.70;54.00
18575;DHT22;9417;16.484;102.872;2022-10-30T06:53:21;30.80;54.50
18575;DHT22;9417;16.484;102.872;2022-10-30T06:55:34;30.80;55.00
18575;DHT22;9417;16.484;102.872;2022-10-30T06:58:00;30.90;55.10
18575;DHT22;9417;16.484;102.872;2022-10-30T07:00:28;30.90;55.30
18575;DHT22;9417;16.484;102.872;2022-10-30T07:02:57;30.90;54.10
18575;DHT22;9417;16.484;102.872;2022-10-30T07:05:07;31.00;53.30
18575;DHT22;9417;16.484;102.872;2022-10-30T07:07:17;30.90;52.90
18575;DHT22;9417;16.484;102.872;2022-10-30T07:09:24;30.90;53.90
18575;DHT22;9417;16.484;102.872;2022-10-30T07:11:31;30.80;53.90
18575;DHT22;9417;16.484;102.872;2022-10-30T07:13:43;30.90;54.30
18575;DHT22;9417;16.484;102.872;2022-10-30T07:16:05;30.90;54.30
18575;DHT22;9417;16.484;102.872;2022-10-30T07:18:16;30.80;54.20
18575;DHT22;9417;16.484;102.872;2022-10-30T07:20:28;30.80;55.00
18575;DHT22;9417;16.484;102.872;2022-10-30T07:22:38;30.80;55.10
18575;DHT22;9417;16.484;102.872;2022-10-30T07:24:46;30.80;55.20
18575;DHT22;9417;16.484;102.872;2022-10-30T07:27:13;30.70;55.50
18575;DHT22;9417;16.484;102.872;2022-10-30T07:29:25;30.60;55.30
18575;DHT22;9417;16.484;102.872;2022-10-30T07:31:52;30.50;55.60
18575;DHT22;9417;16.484;102.872;2022-10-30T07:34:18;30.30;56.30
18575;DHT22;9417;16.484;102.872;2022-10-30T07:36:39;30.20;56.80
18575;DHT22;9417;16.484;102.872;2022-10-30T07:38:59;30.00;57.40
18575;DHT22;9417;16.484;102.872;2022-10-30T07:41:22;30.00;57.90
18575;DHT22;9417;16.484;102.872;2022-10-30T07:43:41;29.90;58.60
18575;DHT22;9417;16.484;102.872;2022-10-30T07:46:08;29.90;59.00
18575;DHT22;9417;16.484;102.872;2022-10-30T07:48:35;29.80;59.20
18575;DHT22;9417;16.484;102.872;2022-10-30T07:50:54;29.70;59.50
18575;DHT22;9417;16.484;102.872;2022-10-30T07:53:04;29.70;59.90
18575;DHT22;9417;16.484;102.872;2022-10-30T07:55:11;29.80;60.20
18575;DHT22;9417;16.484;102.872;2022-10-30T07:57:38;29.80;60.10
18575;DHT22;9417;16.484;102.872;2022-10-30T07:59:58;29.80;60.30
18575;DHT22;9417;16.484;102.872;2022-10-30T08:02:16;29.80;61.20
18575;DHT22;9417;16.484;102.872;2022-10-30T08:04:38;29.70;60.30
18575;DHT22;9417;16.484;102.872;2022-10-30T08:07:04;29.70;61.10
18575;DHT22;9417;16.484;102.872;2022-10-30T08:09:13;29.70;60.40
18575;DHT22;9417;16.484;102.872;2022-10-30T08:11:22;29.70;60.50
18575;DHT22;9417;16.484;102.872;2022-10-30T08:13:32;29.80;60.70
18575;DHT22;9417;16.484;102.872;2022-10-30T08:15:41;29.80;60.10
18575;DHT22;9417;16.484;102.872;2022-10-30T08:17:49;29.80;59.30
18575;DHT22;9417;16.484;102.872;2022-10-30T08:19:56;29.80;59.20
18575;DHT22;9417;16.484;102.872;2022-10-30T08:22:04;29.90;59.90
18575;DHT22;9417;16.484;102.872;2022-10-30T08:24:13;29.90;60.00
18575;DHT22;9417;16.484;102.872;2022-10-30T08:26:22;29.90;59.90
18575;DHT22;9417;16.484;102.872;2022-10-30T08:28:29;30.00;59.40
18575;DHT22;9417;16.484;102.872;2022-10-30T08:30:38;30.00;59.50
18575;DHT22;9417;16.484;102.872;2022-10-30T08:32:49;30.10;59.00
18575;DHT22;9417;16.484;102.872;2022-10-30T08:35:08;30.10;58.60
18575;DHT22;9417;16.484;102.872;2022-10-30T08:37:22;30.10;58.30
18575;DHT22;9417;16.484;102.872;2022-10-30T08:39:31;30.10;58.40
18575;DHT22;9417;16.484;102.872;2022-10-30T08:41:50;30.10;59.00
18575;DHT22;9417;16.484;102.872;2022-10-30T08:43:57;30.10;59.10
18575;DHT22;9417;16.484;102.872;2022-10-30T08:46:15;30.10;59.20
18575;DHT22;9417;16.484;102.872;2022-10-30T08:48:22;30.10;59.30
18575;DHT22;9417;16.484;102.872;2022-10-30T08:50:29;30.00;59.30
18575;DHT22;9417;16.484;102.872;2022-10-30T08:52:36;30.00;59.40
18575;DHT22;9417;16.484;102.872;2022-10-30T08:54:45;30.00;59.80
18575;DHT22;9417;16.484;102.872;2022-10-30T08:56:52;29.90;59.90
18575;DHT22;9417;16.484;102.872;2022-10-30T08:59:00;29.90;59.90
18575;DHT22;9417;16.484;102.872;2022-10-30T09:01:08;29.90;60.30
18575;DHT22;9417;16.484;102.872;2022-10-30T09:03:27;29.80;60.60
18575;DHT22;9417;16.484;102.872;2022-10-30T09:05:35;29.80;60.10
18575;DHT22;9417;16.484;102.872;2022-10-30T09:07:56;29.70;59.70
18575;DHT22;9417;16.484;102.872;2022-10-30T09:10:26;29.70;60.10
18575;DHT22;9417;16.484;102.872;2022-10-30T09:12:33;29.70;60.10
18575;DHT22;9417;16.484;102.872;2022-10-30T09:14:40;29.60;60.60
18575;DHT22;9417;16.484;102.872;2022-10-30T09:16:47;29.60;60.70
18575;DHT22;9417;16.484;102.872;2022-10-30T09:18:58;29.50;61.20
18575;DHT22;9417;16.484;102.872;2022-10-30T09:21:05;29.40;61.20
18575;DHT22;9417;16.484;102.872;2022-10-30T09:23:18;29.40;61.60
18575;DHT22;9417;16.484;102.872;2022-10-30T09:25:33;29.40;62.00
18575;DHT22;9417;16.484;102.872;2022-10-30T09:27:58;29.30;62.30
18575;DHT22;9417;16.484;102.872;2022-10-30T09:30:18;29.20;62.60
18575;DHT22;9417;16.484;102.872;2022-10-30T09:32:28;29.20;62.60
18575;DHT22;9417;16.484;102.872;2022-10-30T09:34:40;29.20;62.80
18575;DHT22;9417;16.484;102.872;2022-10-30T09:37:00;29.20;62.60
18575;DHT22;9417;16.484;102.872;2022-10-30T09:39:11;29.10;62.80
18575;DHT22;9417;16.484;102.872;2022-10-30T09:41:44;29.20;63.20
18575;DHT22;9417;16.484;102.872;2022-10-30T09:44:08;29.10;62.10
18575;DHT22;9417;16.484;102.872;2022-10-30T09:46:23;29.00;62.80
18575;DHT22;9417;16.484;102.872;2022-10-30T09:51:33;29.00;63.40
18575;DHT22;9417;16.484;102.872;2022-10-30T09:53:53;29.00;63.30
18575;DHT22;9417;16.484;102.872;2022-10-30T09:56:11;28.90;63.60
18575;DHT22;9417;16.484;102.872;2022-10-30T09:58:26;28.90;63.80
18575;DHT22;9417;16.484;102.872;2022-10-30T10:00:37;28.90;63.90
18575;DHT22;9417;16.484;102.872;2022-10-30T10:03:08;28.90;63.80
18575;DHT22;9417;16.484;102.872;2022-10-30T10:05:43;28.80;63.40
18575;DHT22;9417;16.484;102.872;2022-10-30T10:08:07;28.80;63.30
18575;DHT22;9417;16.484;102.872;2022-10-30T10:10:37;28.80;63.30
18575;DHT22;9417;16.484;102.872;2022-10-30T10:12:52;28.80;62.70
18575;DHT22;9417;16.484;102.872;2022-10-30T10:15:10;28.70;63.10
18575;DHT22;9417;16.484;102.872;2022-10-30T10:17:25;28.80;62.70
18575;DHT22;9417;16.484;102.872;2022-10-30T10:19:39;28.70;62.90
18575;DHT22;9417;16.484;102.872;2022-10-30T10:21:52;28.70;63.10
18575;DHT22;9417;16.484;102.872;2022-10-30T10:24:02;28.70;63.50
18575;DHT22;9417;16.484;102.872;2022-10-30T10:26:20;28.60;63.80
18575;DHT22;9417;16.484;102.872;2022-10-30T10:28:44;28.60;63.90
18575;DHT22;9417;16.484;102.872;2022-10-30T10:30:58;28.60;64.20
18575;DHT22;9417;16.484;102.872;2022-10-30T10:36:06;28.40;65.00
18575;DHT22;9417;16.484;102.872;2022-10-30T10:38:24;28.40;65.10
18575;DHT22;9417;16.484;102.872;2022-10-30T10:40:41;28.30;65.10
18575;DHT22;9417;16.484;102.872;2022-10-30T10:43:00;28.30;65.00
18575;DHT22;9417;16.484;102.872;2022-10-30T10:45:23;28.30;65.60
18575;DHT22;9417;16.484;102.872;2022-10-30T10:48:13;28.30;65.60
18575;DHT22;9417;16.484;102.872;2022-10-30T10:50:24;28.20;65.30
18575;DHT22;9417;16.484;102.872;2022-10-30T10:52:36;28.20;65.80
18575;DHT22;9417;16.484;102.872;2022-10-30T10:54:46;28.20;65.90
18575;DHT22;9417;16.484;102.872;2022-10-30T10:56:55;28.10;65.70
18575;DHT22;9417;16.484;102.872;2022-10-30T10:59:05;28.10;65.80
18575;DHT22;9417;16.484;102.872;2022-10-30T11:01:21;28.10;66.20
18575;DHT22;9417;16.484;102.872;2022-10-30T11:03:37;28.00;67.40
18575;DHT22;9417;16.484;102.872;2022-10-30T11:05:50;28.00;67.40
18575;DHT22;9417;16.484;102.872;2022-10-30T11:08:08;28.00;67.70
18575;DHT22;9417;16.484;102.872;2022-10-30T11:10:19;27.90;69.90
18575;DHT22;9417;16.484;102.872;2022-10-30T11:12:28;27.90;69.40
18575;DHT22;9417;16.484;102.872;2022-10-30T11:14:39;27.80;69.20
18575;DHT22;9417;16.484;102.872;2022-10-30T11:17:11;27.80;70.30
18575;DHT22;9417;16.484;102.872;2022-10-30T11:19:22;27.70;71.30
18575;DHT22;9417;16.484;102.872;2022-10-30T11:21:32;27.60;71.40
18575;DHT22;9417;16.484;102.872;2022-10-30T11:23:41;27.50;71.00
18575;DHT22;9417;16.484;102.872;2022-10-30T11:25:49;27.50;72.20
18575;DHT22;9417;16.484;102.872;2022-10-30T11:27:56;27.50;73.40
18575;DHT22;9417;16.484;102.872;2022-10-30T11:30:05;27.40;74.40
18575;DHT22;9417;16.484;102.872;2022-10-30T11:32:18;27.30;75.20
18575;DHT22;9417;16.484;102.872;2022-10-30T11:34:32;27.20;75.30
18575;DHT22;9417;16.484;102.872;2022-10-30T11:36:39;27.10;75.60
18575;DHT22;9417;16.484;102.872;2022-10-30T11:38:46;27.10;75.90
18575;DHT22;9417;16.484;102.872;2022-10-30T11:40:53;27.00;76.10
18575;DHT22;9417;16.484;102.872;2022-10-30T11:43:01;27.00;76.70
18575;DHT22;9417;16.484;102.872;2022-10-30T11:45:15;26.90;77.10
18575;DHT22;9417;16.484;102.872;2022-10-30T11:47:30;26.90;77.50
18575;DHT22;9417;16.484;102.872;2022-10-30T11:49:46;26.80;77.00
18575;DHT22;9417;16.484;102.872;2022-10-30T11:51:54;26.70;76.80
18575;DHT22;9417;16.484;102.872;2022-10-30T11:54:01;26.60;76.70
18575;DHT22;9417;16.484;102.872;2022-10-30T11:56:14;26.60;76.70
18575;DHT22;9417;16.484;102.872;2022-10-30T11:58:23;26.60;77.30
18575;DHT22;9417;16.484;102.872;2022-10-30T12:00:33;26.50;77.90
18575;DHT22;9417;16.484;102.872;2022-10-30T12:02:42;26.50;78.70
18575;DHT22;9417;16.484;102.872;2022-10-30T12:04:51;26.50;78.80
18575;DHT22;9417;16.484;102.872;2022-10-30T12:07:16;26.30;79.00
18575;DHT22;9417;16.484;102.872;2022-10-30T12:09:24;26.30;79.00
18575;DHT22;9417;16.484;102.872;2022-10-30T12:11:33;26.20;78.70
18575;DHT22;9417;16.484;102.872;2022-10-30T12:13:40;26.10;78.70
18575;DHT22;9417;16.484;102.872;2022-10-30T12:15:49;26.00;78.80
18575;DHT22;9417;16.484;102.872;2022-10-30T12:17:59;26.00;79.00
18575;DHT22;9417;16.484;102.872;2022-10-30T12:20:13;25.90;79.80
18575;DHT22;9417;16.484;102.872;2022-10-30T12:22:31;25.90;80.50
18575;DHT22;9417;16.484;102.872;2022-10-30T12:24:39;25.90;81.00
18575;DHT22;9417;16.484;102.872;2022-10-30T12:26:51;25.90;81.00
18575;DHT22;9417;16.484;102.872;2022-10-30T12:29:01;25.90;81.10
18575;DHT22;9417;16.484;102.872;2022-10-30T12:31:12;25.90;81.20
18575;DHT22;9417;16.484;102.872;2022-10-30T12:33:24;25.90;81.30
18575;DHT22;9417;16.484;102.872;2022-10-30T12:35:40;25.90;81.60
18575;DHT22;9417;16.484;102.872;2022-10-30T12:37:49;25.90;81.80
18575;DHT22;9417;16.484;102.872;2022-10-30T12:40:00;25.90;82.00
18575;DHT22;9417;16.484;102.872;2022-10-30T12:42:12;25.90;82.30
18575;DHT22;9417;16.484;102.872;2022-10-30T12:44:20;25.80;81.20
18575;DHT22;9417;16.484;102.872;2022-10-30T12:46:32;25.70;81.30
18575;DHT22;9417;16.484;102.872;2022-10-30T12:48:48;25.70;81.20
18575;DHT22;9417;16.484;102.872;2022-10-30T12:51:11;25.60;80.90
18575;DHT22;9417;16.484;102.872;2022-10-30T12:53:31;25.60;81.20
18575;DHT22;9417;16.484;102.872;2022-10-30T12:55:44;25.60;81.80
18575;DHT22;9417;16.484;102.872;2022-10-30T12:57:56;25.60;82.20
18575;DHT22;9417;16.484;102.872;2022-10-30T13:00:12;25.60;82.40
18575;DHT22;9417;16.484;102.872;2022-10-30T13:02:32;25.60;83.00
18575;DHT22;9417;16.484;102.872;2022-10-30T13:04:46;25.60;83.40
18575;DHT22;9417;16.484;102.872;2022-10-30T13:07:01;25.60;83.30
18575;DHT22;9417;16.484;102.872;2022-10-30T13:09:15;25.60;83.30
18575;DHT22;9417;16.484;102.872;2022-10-30T13:11:31;25.60;82.60
18575;DHT22;9417;16.484;102.872;2022-10-30T13:13:44;25.60;81.70
18575;DHT22;9417;16.484;102.872;2022-10-30T13:15:54;25.50;81.30
18575;DHT22;9417;16.484;102.872;2022-10-30T13:18:11;25.50;81.20
18575;DHT22;9417;16.484;102.872;2022-10-30T13:20:20;25.50;81.40
18575;DHT22;9417;16.484;102.872;2022-10-30T13:22:33;25.40;82.30
18575;DHT22;9417;16.484;102.872;2022-10-30T13:24:48;25.40;83.00
18575;DHT22;9417;16.484;102.872;2022-10-30T13:27:06;25.40;83.10
18575;DHT22;9417;16.484;102.872;2022-10-30T13:29:21;25.30;83.10
18575;DHT22;9417;16.484;102.872;2022-10-30T13:31:37;25.20;83.30
18575;DHT22;9417;16.484;102.872;2022-10-30T13:33:53;25.20;83.40
18575;DHT22;9417;16.484;102.872;2022-10-30T13:36:05;25.10;83.70
18575;DHT22;9417;16.484;102.872;2022-10-30T13:38:31;24.90;83.80
18575;DHT22;9417;16.484;102.872;2022-10-30T13:40:42;24.80;84.10
18575;DHT22;9417;16.484;102.872;2022-10-30T13:43:05;24.80;84.70
18575;DHT22;9417;16.484;102.872;2022-10-30T13:45:42;24.80;85.60
18575;DHT22;9417;16.484;102.872;2022-10-30T13:47:59;24.90;85.30